Pwllheli, United Kingdom
Current Conditions -  °F | °C
As of 5:50 PM on Thursday 29 Jan 2015 (Local Time) from EGOV Reporting Station
Broken Clouds Broken Clouds  
Wind Chill: 28°   Ceiling: 1800
Heat Index: 39°   Visibility: 6mi
Dew Point: 34°   Wind: 25mph
Humidity: 81%   Direction: 290°WNW
Pressure: 28.91"   Gusts: NA
Location:  52.89°N, 4.41°W
Report Text: EGOV 291750Z 29022KT 9999 BKN018TCU SCT180 04/01 Q0979 WHT TEMPO 6000 -SHGS WHT
Loading
Personal Weather Stations






























Interactive Weather Map New forecast layout! Learn more

10-Day Weather Forecast

Advertisements
Track Severe Weather on mobile